Capitol Logistics 3267


KDAB
Daytona Beach International Airport
Daytona Beach, Florida, US
KMIA
Miami International Airport
Miami, Florida, US

Activity Log

Date Flight Route Aircraft Duration
01/04/2020 CPX3267 OMN HILEY7 SF34 1h 09m
11/05/2019 CPX667 MYRA V3 MLB V437 PHK V267 BRIKL SF34 1h 24m

Route Details

Aircraft Information
Primary: Saab 340AF
Backup: Not Available
Route Data
Distance: 207nm
Sched. Duration: 1h 39m
Avg. Duration: 1h 16m (-24m)
Times Flown: 2
Recm'd Route: MYRA V3 MLB V437 PHK V267 BRIKL
Planned Altitude: 17,000ft
Origin Wx: KDAB 281053Z 30004KT 10SM CLR 04/03 A3023 RMK AO2 SLP237 T00440033
Dest. Wx: KMIA 281053Z 33008G16KT 10SM FEW050 11/03 A3021 RMK AO2 SLP231 T01110033
Notes:

Financial History
Total Freight: 15,300lbs
Average Load: 7,650lbs/flt
Fuel Used: 2,156lbs
Avg. Fuel Used: 1,078lbs/flt
Fuel Expense: $1,876
Avg. Fuel Expense: $938
Avg. Fuel Cost: $0.87/lbs
Total Gross Income: $17,968
Pilot Pay: $458
Total Expenses: $2,045
Total Revenue: $13,464
Average Revenue: $8,984.08